Port Washington, New York
Current Conditions -  °F | °C
As of 2:51 PM on Tuesday 21 Oct 2014 (Local Time) from KLGA Reporting Station
Broken Clouds Broken Clouds  
Wind Chill: 64°   Ceiling: 25000
Heat Index: 64°   Visibility: 10mi
Dew Point: 52°   Wind: 13mph
Humidity: 65%   Direction: 120°ESE
Pressure: 29.83"   Gusts: NA
Location:  40.83°N, 73.7°W
Report Text: KLGA 211851Z 12011KT 10SM SCT055 SCT090 BKN250 18/11 A2983 RMK AO2 SLP102 T01780111
Loading
Personal Weather Stations






























Interactive Weather Map
Tropical Storm Tracking
New forecast layout! Learn more

10-Day Weather Forecast

Advertisements
Track Severe Weather on mobile